Terminal Aerodrome Forecast
Issued by NWS

Home | Current Version | Previous Version | Text Only | Print | Product List | Glossary On
Versions: 1 2 3 4 5 6 7 8 9 10 11 12 13 14 15 16 17
000
FTUS43 KILX 251411 AAB
TAFBMI
TAF AMD
KBMI 251411Z 2514/2612 10014KT 5SM -SHRA BR VCTS OVC017CB
      TEMPO 2514/2518 1 1/2SM -TSRA BKN003 BKN010CB
     FM251800 08012G18KT P6SM OVC015
      TEMPO 2522/2602 5SM -RA BR OVC012
     FM260200 05012KT P6SM OVC015
     FM260600 03009KT P6SM SCT015=

USA.gov is the U.S. government's official web portal to all federal, state and local government web resources and services.